DAL998 KBOS-KMIA
Flight info
| Callsign | DAL998 |
|---|---|
| Flight time | N/A |
| Altitude | 34000 |
| Route | SSOXS7 SSOXS Q167 RIFLE HEADI Q97 KALDA Q101 SKARP Y313 HOAGG BNFSH3 |
| Aircraft | B739/M-SDE2E3FGHIRWXY/LB1 |
Departure
| Time | 2026-05-05 14:33 |
|---|---|
| Airport | Boston Logan International Airport (KBOS) |
Arrival
| Time | N/A |
|---|---|
| Airport | Miami International Airport (KMIA) |
| Time | Latitude | Longitude | Altitude | Speed | Heading |
|---|---|---|---|---|---|
| 2026-05-05 14:11 | 42.37178 | -71.02563 | 24 ft | 0 kts | 220° |
| 2026-05-05 14:21 | 42.37182 | -71.02559 | 24 ft | 3 kts | 220° |
| 2026-05-05 14:21 | 42.37203 | -71.02536 | 27 ft | 4 kts | 220° |
| 2026-05-05 14:21 | 42.37222 | -71.02514 | 29 ft | 2 kts | 220° |
| 2026-05-05 14:22 | 42.37240 | -71.02496 | 30 ft | 4 kts | 196° |
| 2026-05-05 14:22 | 42.37261 | -71.02499 | 28 ft | 3 kts | 131° |
| 2026-05-05 14:22 | 42.37276 | -71.02523 | 24 ft | 1 kts | 131° |
| 2026-05-05 14:22 | 42.37277 | -71.02523 | 24 ft | 0 kts | 131° |
| 2026-05-05 14:25 | 42.37276 | -71.02523 | 24 ft | 1 kts | 131° |
| 2026-05-05 14:25 | 42.37258 | -71.02495 | 25 ft | 8 kts | 131° |
| 2026-05-05 14:25 | 42.37200 | -71.02412 | 24 ft | 16 kts | 135° |
| 2026-05-05 14:25 | 42.37143 | -71.02281 | 24 ft | 17 kts | 83° |
| 2026-05-05 14:26 | 42.37213 | -71.02167 | 25 ft | 16 kts | 44° |
| 2026-05-05 14:26 | 42.37234 | -71.02033 | 24 ft | 15 kts | 98° |
| 2026-05-05 14:26 | 42.37269 | -71.01911 | 26 ft | 14 kts | 45° |
| 2026-05-05 14:26 | 42.37274 | -71.01796 | 27 ft | 14 kts | 131° |
| 2026-05-05 14:27 | 42.37208 | -71.01707 | 26 ft | 13 kts | 135° |
| 2026-05-05 14:27 | 42.37144 | -71.01622 | 24 ft | 13 kts | 135° |
| 2026-05-05 14:27 | 42.37082 | -71.01539 | 24 ft | 12 kts | 135° |
| 2026-05-05 14:27 | 42.37020 | -71.01455 | 26 ft | 13 kts | 135° |
| 2026-05-05 14:28 | 42.36945 | -71.01357 | 29 ft | 17 kts | 136° |
| 2026-05-05 14:28 | 42.36936 | -71.01201 | 24 ft | 20 kts | 70° |
| 2026-05-05 14:28 | 42.37043 | -71.01080 | 27 ft | 21 kts | 22° |
| 2026-05-05 14:28 | 42.37160 | -71.00999 | 27 ft | 18 kts | 27° |
| 2026-05-05 14:29 | 42.37270 | -71.00926 | 26 ft | 17 kts | 26° |
| 2026-05-05 14:29 | 42.37381 | -71.00869 | 26 ft | 17 kts | 19° |
| 2026-05-05 14:29 | 42.37488 | -71.00816 | 26 ft | 16 kts | 20° |
| 2026-05-05 14:29 | 42.37592 | -71.00767 | 27 ft | 15 kts | 20° |
| 2026-05-05 14:30 | 42.37691 | -71.00719 | 24 ft | 15 kts | 20° |
| 2026-05-05 14:30 | 42.37786 | -71.00673 | 24 ft | 14 kts | 19° |
| 2026-05-05 14:30 | 42.37835 | -71.00595 | 26 ft | 6 kts | 92° |
| 2026-05-05 14:30 | 42.37830 | -71.00570 | 24 ft | 0 kts | 107° |
| 2026-05-05 14:31 | 42.37829 | -71.00565 | 27 ft | 3 kts | 109° |
| 2026-05-05 14:31 | 42.37813 | -71.00499 | 27 ft | 8 kts | 109° |
| 2026-05-05 14:31 | 42.37768 | -71.00486 | 26 ft | 8 kts | 197° |
| 2026-05-05 14:31 | 42.37755 | -71.00492 | 26 ft | 0 kts | 200° |
| 2026-05-05 14:32 | 42.37752 | -71.00494 | 26 ft | 4 kts | 200° |
| 2026-05-05 14:33 | 42.37522 | -71.00605 | 26 ft | 70 kts | 200° |
| 2026-05-05 14:33 | 42.36863 | -71.00923 | 25 ft | 129 kts | 199° |
| 2026-05-05 14:33 | 42.35874 | -71.01407 | 112 ft | 167 kts | 200° |
| 2026-05-05 14:33 | 42.34731 | -71.01792 | 672 ft | 175 kts | 180° |
| 2026-05-05 14:34 | 42.33607 | -71.01174 | 1359 ft | 187 kts | 142° |
| 2026-05-05 14:34 | 42.32768 | -70.99734 | 1922 ft | 202 kts | 135° |
| 2026-05-05 14:34 | 42.31883 | -70.98078 | 2128 ft | 230 kts | 127° |
| 2026-05-05 14:34 | 42.31361 | -70.95967 | 2713 ft | 246 kts | 107° |
| 2026-05-05 14:35 | 42.31351 | -70.93550 | 3064 ft | 270 kts | 81° |
| 2026-05-05 14:35 | 42.31770 | -70.91015 | 3506 ft | 287 kts | 79° |
| 2026-05-05 14:35 | 42.32185 | -70.88318 | 4097 ft | 296 kts | 80° |
| 2026-05-05 14:35 | 42.32580 | -70.85615 | 4863 ft | 299 kts | 79° |
| 2026-05-05 14:36 | 42.32964 | -70.82833 | 5602 ft | 303 kts | 80° |
| 2026-05-05 14:36 | 42.33131 | -70.80014 | 6400 ft | 301 kts | 102° |
| 2026-05-05 14:36 | 42.32479 | -70.77375 | 7180 ft | 296 kts | 118° |
| 2026-05-05 14:36 | 42.31597 | -70.74844 | 7871 ft | 300 kts | 119° |
| 2026-05-05 14:37 | 42.30697 | -70.72283 | 8576 ft | 304 kts | 119° |
| 2026-05-05 14:37 | 42.29726 | -70.69741 | 9295 ft | 304 kts | 131° |
| 2026-05-05 14:37 | 42.28176 | -70.67899 | 9968 ft | 295 kts | 157° |
| 2026-05-05 14:37 | 42.26280 | -70.66841 | 10441 ft | 302 kts | 166° |
| 2026-05-05 14:38 | 42.24211 | -70.65933 | 10598 ft | 323 kts | 168° |
| 2026-05-05 14:38 | 42.21998 | -70.64983 | 10782 ft | 344 kts | 167° |
| 2026-05-05 14:38 | 42.19685 | -70.63954 | 11195 ft | 355 kts | 166° |
| 2026-05-05 14:38 | 42.17327 | -70.62881 | 11824 ft | 359 kts | 166° |
| 2026-05-05 14:39 | 42.14940 | -70.61891 | 12486 ft | 358 kts | 175° |
| 2026-05-05 14:39 | 42.12498 | -70.61933 | 13137 ft | 350 kts | 196° |
| 2026-05-05 14:39 | 42.10170 | -70.62832 | 13818 ft | 349 kts | 202° |
| 2026-05-05 14:39 | 42.07858 | -70.63876 | 14373 ft | 352 kts | 202° |